Lake Holiday, Washington
Current Conditions -  °F | °C
As of 9:55 AM on Thursday 23 Oct 2014 (Local Time) from KPWT Reporting Station
Overcast Overcast  
Wind Chill: 50°   Ceiling: 5000
Heat Index: 50°   Visibility: 10mi
Dew Point: 48°   Wind: 8mph
Humidity: 94%   Direction: 140°SE
Pressure: 29.78"   Gusts: NA
Location:  47.5378°N, 122.589°W
Report Text: KPWT 231655Z AUTO 14007KT 10SM FEW026 SCT034 OVC050 10/09 A2978 RMK AO1 P0005
Loading
Personal Weather Stations






























Interactive Weather Map
Tropical Storm Tracking
New forecast layout! Learn more

10-Day Weather Forecast

Advertisements
Track Severe Weather on mobile